Ktima, Cyprus
Current Conditions -  °F | °C
As of 6:30 AM on Saturday 25 Oct 2014 (Local Time) from LCPH Reporting Station
Few Clouds Few Clouds  
Wind Chill: 70°   Ceiling: Unl
Heat Index: 70°   Visibility: 6mi
Dew Point: 54°   Wind: 10mph
Humidity: 56%   Direction: 60°ENE
Pressure: 29.94"   Gusts: NA
Location:  34.76°N, 32.42°E
Report Text: LCPH 250330Z 06009KT 9999 FEW020 21/12 Q1014
Loading
Personal Weather Stations






























Interactive Weather Map
Tropical Storm Tracking
New forecast layout! Learn more

10-Day Weather Forecast

Advertisements
Track Severe Weather on mobile